Terminal Aerodrome Forecast
Issued by NWS

Home | Current Version | Previous Version | Text Only | Print | Product List | Glossary On
Versions: 1 2 3 4 5 6 7 8 9 10 11 12 13 14 15 16 17 18 19 20 21 22 23 24 25 26 27 28 29 30
000
FTUS44 KHGX 011720
TAFUTS
TAF
KUTS 011720Z 0118/0218 17006KT P6SM SCT040
     FM020000 17006KT P6SM SCT100
     FM020700 VRB04KT P6SM SCT005 BKN015
      TEMPO 0209/0212 4SM BR BKN005
     FM021400 19008KT P6SM SCT015 BKN025=

USA.gov is the U.S. government's official web portal to all federal, state and local government web resources and services.